sensor_id;sensor_type;location;lat;lon;timestamp;P1;durP1;ratioP1;P2;durP2;ratioP2
20454;SDS011;10386;54.314;10.022;2024-02-04T00:01:18;18.63;;;3.80;;
20454;SDS011;10386;54.314;10.022;2024-02-04T00:03:45;25.20;;;4.33;;
20454;SDS011;10386;54.314;10.022;2024-02-04T00:06:12;22.87;;;3.97;;
20454;SDS011;10386;54.314;10.022;2024-02-04T00:08:39;31.45;;;4.20;;
20454;SDS011;10386;54.314;10.022;2024-02-04T00:11:06;25.50;;;3.60;;
20454;SDS011;10386;54.314;10.022;2024-02-04T00:13:35;20.00;;;3.00;;
20454;SDS011;10386;54.314;10.022;2024-02-04T00:16:01;22.23;;;3.63;;
20454;SDS011;10386;54.314;10.022;2024-02-04T00:18:28;18.77;;;3.70;;
20454;SDS011;10386;54.314;10.022;2024-02-04T00:20:55;28.00;;;3.93;;
20454;SDS011;10386;54.314;10.022;2024-02-04T00:23:22;22.43;;;4.37;;
20454;SDS011;10386;54.314;10.022;2024-02-04T00:25:49;24.30;;;3.67;;
20454;SDS011;10386;54.314;10.022;2024-02-04T00:28:16;21.73;;;3.70;;
20454;SDS011;10386;54.314;10.022;2024-02-04T00:30:44;21.90;;;3.60;;
20454;SDS011;10386;54.314;10.022;2024-02-04T00:33:11;28.93;;;4.87;;
20454;SDS011;10386;54.314;10.022;2024-02-04T00:35:38;17.07;;;3.50;;
20454;SDS011;10386;54.314;10.022;2024-02-04T00:38:04;24.03;;;3.67;;
20454;SDS011;10386;54.314;10.022;2024-02-04T00:40:31;22.73;;;3.57;;
20454;SDS011;10386;54.314;10.022;2024-02-04T00:43:02;19.47;;;3.47;;
20454;SDS011;10386;54.314;10.022;2024-02-04T00:45:29;34.90;;;4.83;;
20454;SDS011;10386;54.314;10.022;2024-02-04T00:47:56;22.00;;;3.43;;
20454;SDS011;10386;54.314;10.022;2024-02-04T00:50:23;20.57;;;3.47;;
20454;SDS011;10386;54.314;10.022;2024-02-04T00:52:50;24.40;;;4.20;;
20454;SDS011;10386;54.314;10.022;2024-02-04T00:55:19;17.33;;;3.30;;
20454;SDS011;10386;54.314;10.022;2024-02-04T00:57:46;20.20;;;3.50;;
20454;SDS011;10386;54.314;10.022;2024-02-04T01:00:13;33.23;;;5.03;;
20454;SDS011;10386;54.314;10.022;2024-02-04T01:02:40;25.37;;;3.47;;
20454;SDS011;10386;54.314;10.022;2024-02-04T01:05:07;26.77;;;3.50;;
20454;SDS011;10386;54.314;10.022;2024-02-04T01:07:34;27.33;;;4.43;;
20454;SDS011;10386;54.314;10.022;2024-02-04T01:10:01;32.50;;;3.83;;
20454;SDS011;10386;54.314;10.022;2024-02-04T01:12:33;29.87;;;4.60;;
20454;SDS011;10386;54.314;10.022;2024-02-04T01:15:00;26.10;;;4.23;;
20454;SDS011;10386;54.314;10.022;2024-02-04T01:17:27;22.27;;;4.73;;
20454;SDS011;10386;54.314;10.022;2024-02-04T01:19:54;22.83;;;3.93;;
20454;SDS011;10386;54.314;10.022;2024-02-04T01:22:21;21.07;;;3.20;;
20454;SDS011;10386;54.314;10.022;2024-02-04T01:24:52;13.00;;;3.37;;
20454;SDS011;10386;54.314;10.022;2024-02-04T01:27:20;25.47;;;3.50;;
20454;SDS011;10386;54.314;10.022;2024-02-04T01:29:46;24.80;;;3.27;;
20454;SDS011;10386;54.314;10.022;2024-02-04T01:32:13;26.03;;;3.40;;
20454;SDS011;10386;54.314;10.022;2024-02-04T01:34:40;21.13;;;3.50;;
20454;SDS011;10386;54.314;10.022;2024-02-04T01:37:07;22.23;;;3.43;;
20454;SDS011;10386;54.314;10.022;2024-02-04T01:39:34;25.50;;;3.67;;
20454;SDS011;10386;54.314;10.022;2024-02-04T01:42:01;27.00;;;3.70;;
20454;SDS011;10386;54.314;10.022;2024-02-04T01:44:28;26.27;;;4.07;;
20454;SDS011;10386;54.314;10.022;2024-02-04T01:46:54;24.90;;;3.30;;
20454;SDS011;10386;54.314;10.022;2024-02-04T01:49:21;19.73;;;3.40;;
20454;SDS011;10386;54.314;10.022;2024-02-04T01:51:48;20.90;;;3.37;;
20454;SDS011;10386;54.314;10.022;2024-02-04T01:54:16;22.43;;;3.33;;
20454;SDS011;10386;54.314;10.022;2024-02-04T01:56:45;23.17;;;3.47;;
20454;SDS011;10386;54.314;10.022;2024-02-04T01:59:13;25.47;;;3.80;;
20454;SDS011;10386;54.314;10.022;2024-02-04T02:01:40;19.33;;;3.73;;
20454;SDS011;10386;54.314;10.022;2024-02-04T02:04:09;29.67;;;4.07;;
20454;SDS011;10386;54.314;10.022;2024-02-04T02:06:36;20.60;;;3.33;;
20454;SDS011;10386;54.314;10.022;2024-02-04T02:09:08;17.90;;;3.50;;
20454;SDS011;10386;54.314;10.022;2024-02-04T02:11:39;18.87;;;3.47;;
20454;SDS011;10386;54.314;10.022;2024-02-04T02:14:11;20.83;;;3.37;;
20454;SDS011;10386;54.314;10.022;2024-02-04T02:16:41;19.80;;;3.47;;
20454;SDS011;10386;54.314;10.022;2024-02-04T02:19:32;21.43;;;3.67;;
20454;SDS011;10386;54.314;10.022;2024-02-04T02:22:29;16.97;;;2.90;;
20454;SDS011;10386;54.314;10.022;2024-02-04T02:25:04;18.40;;;3.73;;
20454;SDS011;10386;54.314;10.022;2024-02-04T02:27:32;18.60;;;2.97;;
20454;SDS011;10386;54.314;10.022;2024-02-04T02:29:59;16.20;;;2.90;;
20454;SDS011;10386;54.314;10.022;2024-02-04T02:32:26;15.93;;;3.03;;
20454;SDS011;10386;54.314;10.022;2024-02-04T02:34:53;20.27;;;3.23;;
20454;SDS011;10386;54.314;10.022;2024-02-04T02:40:37;19.00;;;3.37;;
20454;SDS011;10386;54.314;10.022;2024-02-04T02:43:14;19.77;;;4.03;;
20454;SDS011;10386;54.314;10.022;2024-02-04T02:45:42;25.03;;;3.33;;
20454;SDS011;10386;54.314;10.022;2024-02-04T02:48:10;17.10;;;2.90;;
20454;SDS011;10386;54.314;10.022;2024-02-04T02:50:38;21.23;;;3.30;;
20454;SDS011;10386;54.314;10.022;2024-02-04T02:53:05;21.60;;;3.93;;
20454;SDS011;10386;54.314;10.022;2024-02-04T02:55:32;24.67;;;3.90;;
20454;SDS011;10386;54.314;10.022;2024-02-04T02:57:59;18.57;;;3.07;;
20454;SDS011;10386;54.314;10.022;2024-02-04T03:00:26;21.63;;;3.60;;
20454;SDS011;10386;54.314;10.022;2024-02-04T03:02:53;16.97;;;3.60;;
20454;SDS011;10386;54.314;10.022;2024-02-04T03:05:20;22.70;;;3.50;;
20454;SDS011;10386;54.314;10.022;2024-02-04T03:07:46;19.83;;;3.47;;
20454;SDS011;10386;54.314;10.022;2024-02-04T03:10:13;24.13;;;3.20;;
20454;SDS011;10386;54.314;10.022;2024-02-04T03:12:40;26.47;;;4.03;;
20454;SDS011;10386;54.314;10.022;2024-02-04T03:15:07;22.80;;;3.20;;
20454;SDS011;10386;54.314;10.022;2024-02-04T03:17:34;18.63;;;3.50;;
20454;SDS011;10386;54.314;10.022;2024-02-04T03:20:01;26.30;;;3.30;;
20454;SDS011;10386;54.314;10.022;2024-02-04T03:22:28;17.27;;;3.40;;
20454;SDS011;10386;54.314;10.022;2024-02-04T03:24:55;19.63;;;3.27;;
20454;SDS011;10386;54.314;10.022;2024-02-04T03:30:17;22.37;;;3.67;;
20454;SDS011;10386;54.314;10.022;2024-02-04T03:32:55;23.37;;;3.67;;
20454;SDS011;10386;54.314;10.022;2024-02-04T03:35:31;26.33;;;4.10;;
20454;SDS011;10386;54.314;10.022;2024-02-04T03:38:05;16.37;;;3.40;;
20454;SDS011;10386;54.314;10.022;2024-02-04T03:41:04;20.27;;;3.47;;
20454;SDS011;10386;54.314;10.022;2024-02-04T03:43:58;22.90;;;3.23;;
20454;SDS011;10386;54.314;10.022;2024-02-04T03:46:48;21.50;;;3.00;;
20454;SDS011;10386;54.314;10.022;2024-02-04T03:49:41;19.93;;;3.90;;
20454;SDS011;10386;54.314;10.022;2024-02-04T03:52:30;23.57;;;3.43;;
20454;SDS011;10386;54.314;10.022;2024-02-04T03:55:15;25.73;;;4.50;;
20454;SDS011;10386;54.314;10.022;2024-02-04T03:57:54;19.93;;;3.13;;
20454;SDS011;10386;54.314;10.022;2024-02-04T04:00:40;23.10;;;4.10;;
20454;SDS011;10386;54.314;10.022;2024-02-04T04:03:19;29.53;;;3.30;;
20454;SDS011;10386;54.314;10.022;2024-02-04T04:06:16;16.87;;;3.37;;
20454;SDS011;10386;54.314;10.022;2024-02-04T04:08:57;26.17;;;3.87;;
20454;SDS011;10386;54.314;10.022;2024-02-04T04:12:13;26.03;;;3.53;;
20454;SDS011;10386;54.314;10.022;2024-02-04T04:15:30;18.63;;;3.63;;
20454;SDS011;10386;54.314;10.022;2024-02-04T04:18:18;12.90;;;2.83;;
20454;SDS011;10386;54.314;10.022;2024-02-04T04:21:04;26.30;;;3.47;;
20454;SDS011;10386;54.314;10.022;2024-02-04T04:24:02;18.70;;;3.37;;
20454;SDS011;10386;54.314;10.022;2024-02-04T04:26:33;25.47;;;4.20;;
20454;SDS011;10386;54.314;10.022;2024-02-04T04:29:44;18.83;;;3.23;;
20454;SDS011;10386;54.314;10.022;2024-02-04T04:32:37;19.47;;;3.20;;
20454;SDS011;10386;54.314;10.022;2024-02-04T04:35:45;20.73;;;3.40;;
20454;SDS011;10386;54.314;10.022;2024-02-04T04:53:31;26.13;;;3.67;;
20454;SDS011;10386;54.314;10.022;2024-02-04T04:55:58;27.73;;;3.77;;
20454;SDS011;10386;54.314;10.022;2024-02-04T04:58:24;26.83;;;3.67;;
20454;SDS011;10386;54.314;10.022;2024-02-04T05:00:51;26.33;;;4.10;;
20454;SDS011;10386;54.314;10.022;2024-02-04T05:03:18;20.77;;;3.47;;
20454;SDS011;10386;54.314;10.022;2024-02-04T05:05:45;22.63;;;3.73;;
20454;SDS011;10386;54.314;10.022;2024-02-04T05:08:15;19.63;;;3.50;;
20454;SDS011;10386;54.314;10.022;2024-02-04T05:10:42;35.13;;;4.73;;
20454;SDS011;10386;54.314;10.022;2024-02-04T05:13:09;23.10;;;3.43;;
20454;SDS011;10386;54.314;10.022;2024-02-04T05:15:35;20.27;;;3.60;;
20454;SDS011;10386;54.314;10.022;2024-02-04T05:18:03;27.47;;;4.00;;
20454;SDS011;10386;54.314;10.022;2024-02-04T05:20:31;24.70;;;4.23;;
20454;SDS011;10386;54.314;10.022;2024-02-04T05:22:58;28.43;;;4.17;;
20454;SDS011;10386;54.314;10.022;2024-02-04T05:25:24;18.17;;;4.40;;
20454;SDS011;10386;54.314;10.022;2024-02-04T05:27:52;25.87;;;4.20;;
20454;SDS011;10386;54.314;10.022;2024-02-04T05:30:19;19.77;;;3.70;;
20454;SDS011;10386;54.314;10.022;2024-02-04T05:32:45;24.47;;;4.23;;
20454;SDS011;10386;54.314;10.022;2024-02-04T05:35:12;15.90;;;3.83;;
20454;SDS011;10386;54.314;10.022;2024-02-04T05:37:39;18.00;;;3.53;;
20454;SDS011;10386;54.314;10.022;2024-02-04T05:40:06;21.67;;;3.53;;
20454;SDS011;10386;54.314;10.022;2024-02-04T05:42:34;27.30;;;3.93;;
20454;SDS011;10386;54.314;10.022;2024-02-04T05:45:02;19.80;;;3.37;;
20454;SDS011;10386;54.314;10.022;2024-02-04T05:47:31;22.73;;;4.33;;
20454;SDS011;10386;54.314;10.022;2024-02-04T05:49:58;18.57;;;3.47;;
20454;SDS011;10386;54.314;10.022;2024-02-04T05:52:26;20.50;;;3.80;;
20454;SDS011;10386;54.314;10.022;2024-02-04T05:54:52;24.40;;;4.37;;
20454;SDS011;10386;54.314;10.022;2024-02-04T05:57:19;26.00;;;4.00;;
20454;SDS011;10386;54.314;10.022;2024-02-04T05:59:47;20.70;;;3.50;;
20454;SDS011;10386;54.314;10.022;2024-02-04T06:02:14;27.43;;;4.17;;
20454;SDS011;10386;54.314;10.022;2024-02-04T06:04:41;27.73;;;3.40;;
20454;SDS011;10386;54.314;10.022;2024-02-04T06:07:08;30.83;;;3.60;;
20454;SDS011;10386;54.314;10.022;2024-02-04T06:09:35;30.43;;;4.20;;
20454;SDS011;10386;54.314;10.022;2024-02-04T06:12:02;25.83;;;4.30;;
20454;SDS011;10386;54.314;10.022;2024-02-04T06:14:33;24.13;;;4.37;;
20454;SDS011;10386;54.314;10.022;2024-02-04T06:17:02;24.27;;;4.17;;
20454;SDS011;10386;54.314;10.022;2024-02-04T06:19:29;18.67;;;4.00;;
20454;SDS011;10386;54.314;10.022;2024-02-04T06:21:56;22.17;;;4.10;;
20454;SDS011;10386;54.314;10.022;2024-02-04T06:24:23;31.83;;;4.67;;
20454;SDS011;10386;54.314;10.022;2024-02-04T06:26:49;30.20;;;5.07;;
20454;SDS011;10386;54.314;10.022;2024-02-04T06:29:16;22.93;;;4.00;;
20454;SDS011;10386;54.314;10.022;2024-02-04T06:31:46;23.67;;;3.93;;
20454;SDS011;10386;54.314;10.022;2024-02-04T06:34:13;26.33;;;3.97;;
20454;SDS011;10386;54.314;10.022;2024-02-04T06:36:43;22.43;;;4.20;;
20454;SDS011;10386;54.314;10.022;2024-02-04T06:39:13;24.30;;;4.00;;
20454;SDS011;10386;54.314;10.022;2024-02-04T06:41:40;17.20;;;3.80;;
20454;SDS011;10386;54.314;10.022;2024-02-04T06:44:07;26.03;;;5.07;;
20454;SDS011;10386;54.314;10.022;2024-02-04T06:46:34;25.93;;;3.93;;
20454;SDS011;10386;54.314;10.022;2024-02-04T06:49:00;39.70;;;3.97;;
20454;SDS011;10386;54.314;10.022;2024-02-04T06:51:28;19.90;;;3.77;;
20454;SDS011;10386;54.314;10.022;2024-02-04T06:53:55;30.30;;;5.07;;
20454;SDS011;10386;54.314;10.022;2024-02-04T06:56:22;29.70;;;5.60;;
20454;SDS011;10386;54.314;10.022;2024-02-04T06:58:48;29.33;;;4.23;;
20454;SDS011;10386;54.314;10.022;2024-02-04T07:01:15;23.77;;;4.50;;
20454;SDS011;10386;54.314;10.022;2024-02-04T07:03:42;24.17;;;3.80;;
20454;SDS011;10386;54.314;10.022;2024-02-04T07:06:09;28.23;;;4.23;;
20454;SDS011;10386;54.314;10.022;2024-02-04T07:08:36;22.90;;;4.43;;
20454;SDS011;10386;54.314;10.022;2024-02-04T07:11:02;29.43;;;4.47;;
20454;SDS011;10386;54.314;10.022;2024-02-04T07:13:30;26.43;;;3.73;;
20454;SDS011;10386;54.314;10.022;2024-02-04T07:15:56;28.43;;;4.03;;
20454;SDS011;10386;54.314;10.022;2024-02-04T07:18:24;36.70;;;4.83;;
20454;SDS011;10386;54.314;10.022;2024-02-04T07:20:51;21.63;;;4.67;;
20454;SDS011;10386;54.314;10.022;2024-02-04T07:23:18;37.77;;;4.37;;
20454;SDS011;10386;54.314;10.022;2024-02-04T07:25:45;25.07;;;4.23;;
20454;SDS011;10386;54.314;10.022;2024-02-04T07:28:12;25.17;;;3.63;;
20454;SDS011;10386;54.314;10.022;2024-02-04T07:30:39;24.47;;;3.73;;
20454;SDS011;10386;54.314;10.022;2024-02-04T07:33:06;20.70;;;4.20;;
20454;SDS011;10386;54.314;10.022;2024-02-04T07:35:32;28.63;;;4.17;;
20454;SDS011;10386;54.314;10.022;2024-02-04T07:37:59;32.03;;;5.10;;
20454;SDS011;10386;54.314;10.022;2024-02-04T07:40:26;31.87;;;4.90;;
20454;SDS011;10386;54.314;10.022;2024-02-04T07:42:54;27.17;;;4.50;;
20454;SDS011;10386;54.314;10.022;2024-02-04T07:45:21;28.43;;;4.53;;
20454;SDS011;10386;54.314;10.022;2024-02-04T07:47:48;32.57;;;4.83;;
20454;SDS011;10386;54.314;10.022;2024-02-04T07:50:15;25.17;;;4.00;;
20454;SDS011;10386;54.314;10.022;2024-02-04T07:52:42;24.03;;;3.90;;
20454;SDS011;10386;54.314;10.022;2024-02-04T07:55:10;22.13;;;4.43;;
20454;SDS011;10386;54.314;10.022;2024-02-04T07:57:37;19.17;;;4.23;;
20454;SDS011;10386;54.314;10.022;2024-02-04T08:00:05;32.30;;;4.43;;
20454;SDS011;10386;54.314;10.022;2024-02-04T08:02:32;25.70;;;4.73;;
20454;SDS011;10386;54.314;10.022;2024-02-04T08:04:59;23.90;;;4.60;;
20454;SDS011;10386;54.314;10.022;2024-02-04T08:07:27;29.83;;;5.17;;
20454;SDS011;10386;54.314;10.022;2024-02-04T08:09:53;29.07;;;4.90;;
20454;SDS011;10386;54.314;10.022;2024-02-04T08:12:21;27.70;;;4.37;;
20454;SDS011;10386;54.314;10.022;2024-02-04T08:14:48;28.10;;;4.87;;
20454;SDS011;10386;54.314;10.022;2024-02-04T08:17:15;22.63;;;3.70;;
20454;SDS011;10386;54.314;10.022;2024-02-04T08:19:42;25.27;;;3.90;;
20454;SDS011;10386;54.314;10.022;2024-02-04T08:22:09;28.83;;;4.20;;
20454;SDS011;10386;54.314;10.022;2024-02-04T08:24:36;25.47;;;4.17;;
20454;SDS011;10386;54.314;10.022;2024-02-04T08:27:03;26.40;;;4.07;;
20454;SDS011;10386;54.314;10.022;2024-02-04T08:29:30;29.87;;;4.83;;
20454;SDS011;10386;54.314;10.022;2024-02-04T08:31:56;37.27;;;4.93;;
20454;SDS011;10386;54.314;10.022;2024-02-04T08:34:23;30.27;;;4.37;;
20454;SDS011;10386;54.314;10.022;2024-02-04T08:36:51;26.10;;;4.43;;
20454;SDS011;10386;54.314;10.022;2024-02-04T08:39:18;28.43;;;4.87;;
20454;SDS011;10386;54.314;10.022;2024-02-04T08:41:45;27.00;;;4.43;;
20454;SDS011;10386;54.314;10.022;2024-02-04T08:44:12;22.60;;;4.90;;
20454;SDS011;10386;54.314;10.022;2024-02-04T08:46:57;21.97;;;4.40;;
20454;SDS011;10386;54.314;10.022;2024-02-04T08:49:24;26.13;;;4.57;;
20454;SDS011;10386;54.314;10.022;2024-02-04T08:51:51;27.20;;;4.33;;
20454;SDS011;10386;54.314;10.022;2024-02-04T08:54:18;15.80;;;3.40;;
20454;SDS011;10386;54.314;10.022;2024-02-04T08:56:46;23.67;;;3.90;;
20454;SDS011;10386;54.314;10.022;2024-02-04T08:59:13;25.40;;;4.03;;
20454;SDS011;10386;54.314;10.022;2024-02-04T09:01:39;24.07;;;4.47;;
20454;SDS011;10386;54.314;10.022;2024-02-04T09:04:06;25.43;;;4.80;;
20454;SDS011;10386;54.314;10.022;2024-02-04T09:06:34;20.97;;;3.67;;
20454;SDS011;10386;54.314;10.022;2024-02-04T09:09:01;38.50;;;5.07;;
20454;SDS011;10386;54.314;10.022;2024-02-04T09:11:28;24.30;;;3.97;;
20454;SDS011;10386;54.314;10.022;2024-02-04T09:13:55;25.27;;;4.83;;
20454;SDS011;10386;54.314;10.022;2024-02-04T09:16:22;31.37;;;4.97;;
20454;SDS011;10386;54.314;10.022;2024-02-04T09:18:49;26.13;;;4.10;;
20454;SDS011;10386;54.314;10.022;2024-02-04T09:21:16;31.43;;;4.87;;
20454;SDS011;10386;54.314;10.022;2024-02-04T09:23:43;25.13;;;4.50;;
20454;SDS011;10386;54.314;10.022;2024-02-04T09:26:10;19.97;;;4.40;;
20454;SDS011;10386;54.314;10.022;2024-02-04T09:28:36;26.27;;;4.10;;
20454;SDS011;10386;54.314;10.022;2024-02-04T09:31:04;29.30;;;5.10;;
20454;SDS011;10386;54.314;10.022;2024-02-04T09:33:34;24.70;;;4.87;;
20454;SDS011;10386;54.314;10.022;2024-02-04T09:36:02;20.47;;;5.07;;
20454;SDS011;10386;54.314;10.022;2024-02-04T09:38:30;26.73;;;4.80;;
20454;SDS011;10386;54.314;10.022;2024-02-04T09:40:57;35.43;;;5.37;;
20454;SDS011;10386;54.314;10.022;2024-02-04T09:43:26;29.53;;;4.87;;
20454;SDS011;10386;54.314;10.022;2024-02-04T09:45:53;29.43;;;4.77;;
20454;SDS011;10386;54.314;10.022;2024-02-04T09:48:20;26.23;;;4.07;;
20454;SDS011;10386;54.314;10.022;2024-02-04T09:50:50;20.37;;;4.30;;
20454;SDS011;10386;54.314;10.022;2024-02-04T09:53:21;21.57;;;4.20;;
20454;SDS011;10386;54.314;10.022;2024-02-04T09:55:54;25.57;;;4.60;;
20454;SDS011;10386;54.314;10.022;2024-02-04T09:58:22;36.93;;;4.90;;
20454;SDS011;10386;54.314;10.022;2024-02-04T10:00:50;26.50;;;5.20;;
20454;SDS011;10386;54.314;10.022;2024-02-04T10:03:17;22.87;;;4.17;;
20454;SDS011;10386;54.314;10.022;2024-02-04T10:05:44;19.50;;;4.07;;
20454;SDS011;10386;54.314;10.022;2024-02-04T10:08:12;20.27;;;3.90;;
20454;SDS011;10386;54.314;10.022;2024-02-04T10:10:43;31.93;;;5.30;;
20454;SDS011;10386;54.314;10.022;2024-02-04T10:13:10;27.07;;;4.40;;
20454;SDS011;10386;54.314;10.022;2024-02-04T10:15:37;20.97;;;3.80;;
20454;SDS011;10386;54.314;10.022;2024-02-04T10:18:04;26.83;;;4.40;;
20454;SDS011;10386;54.314;10.022;2024-02-04T10:20:32;27.67;;;4.93;;
20454;SDS011;10386;54.314;10.022;2024-02-04T10:22:59;25.37;;;4.37;;
20454;SDS011;10386;54.314;10.022;2024-02-04T10:25:26;23.80;;;4.90;;
20454;SDS011;10386;54.314;10.022;2024-02-04T10:27:53;32.63;;;4.67;;
20454;SDS011;10386;54.314;10.022;2024-02-04T10:30:20;41.33;;;5.93;;
20454;SDS011;10386;54.314;10.022;2024-02-04T10:32:51;23.27;;;4.83;;
20454;SDS011;10386;54.314;10.022;2024-02-04T10:35:22;29.27;;;4.27;;
20454;SDS011;10386;54.314;10.022;2024-02-04T10:37:50;29.67;;;4.50;;
20454;SDS011;10386;54.314;10.022;2024-02-04T10:40:17;24.77;;;4.63;;
20454;SDS011;10386;54.314;10.022;2024-02-04T10:42:46;27.10;;;5.00;;
20454;SDS011;10386;54.314;10.022;2024-02-04T10:45:13;24.23;;;4.87;;
20454;SDS011;10386;54.314;10.022;2024-02-04T10:47:44;28.37;;;4.47;;
20454;SDS011;10386;54.314;10.022;2024-02-04T10:50:21;31.37;;;4.40;;
20454;SDS011;10386;54.314;10.022;2024-02-04T10:52:50;22.90;;;4.17;;
20454;SDS011;10386;54.314;10.022;2024-02-04T10:55:18;20.40;;;4.80;;
20454;SDS011;10386;54.314;10.022;2024-02-04T10:57:53;22.43;;;4.93;;
20454;SDS011;10386;54.314;10.022;2024-02-04T11:00:21;26.27;;;4.40;;
20454;SDS011;10386;54.314;10.022;2024-02-04T11:02:48;30.83;;;4.53;;
20454;SDS011;10386;54.314;10.022;2024-02-04T11:05:18;28.90;;;4.33;;
20454;SDS011;10386;54.314;10.022;2024-02-04T11:07:47;30.20;;;4.80;;
20454;SDS011;10386;54.314;10.022;2024-02-04T11:10:14;29.17;;;4.10;;
20454;SDS011;10386;54.314;10.022;2024-02-04T11:12:41;31.00;;;4.93;;
20454;SDS011;10386;54.314;10.022;2024-02-04T11:15:10;28.30;;;5.53;;
20454;SDS011;10386;54.314;10.022;2024-02-04T11:26:05;29.27;;;4.53;;
20454;SDS011;10386;54.314;10.022;2024-02-04T11:28:32;24.37;;;5.43;;
20454;SDS011;10386;54.314;10.022;2024-02-04T11:31:00;25.37;;;4.57;;
20454;SDS011;10386;54.314;10.022;2024-02-04T11:33:27;22.93;;;4.90;;
20454;SDS011;10386;54.314;10.022;2024-02-04T11:35:58;26.57;;;4.30;;
20454;SDS011;10386;54.314;10.022;2024-02-04T11:38:30;23.30;;;3.97;;
20454;SDS011;10386;54.314;10.022;2024-02-04T11:40:58;19.27;;;3.60;;
20454;SDS011;10386;54.314;10.022;2024-02-04T11:43:25;32.57;;;4.90;;
20454;SDS011;10386;54.314;10.022;2024-02-04T11:45:52;27.33;;;5.33;;
20454;SDS011;10386;54.314;10.022;2024-02-04T11:48:28;30.57;;;4.93;;
20454;SDS011;10386;54.314;10.022;2024-02-04T11:50:58;17.07;;;4.13;;
20454;SDS011;10386;54.314;10.022;2024-02-04T11:53:29;34.80;;;5.33;;
20454;SDS011;10386;54.314;10.022;2024-02-04T11:56:02;28.47;;;4.70;;
20454;SDS011;10386;54.314;10.022;2024-02-04T11:58:30;24.77;;;4.47;;
20454;SDS011;10386;54.314;10.022;2024-02-04T12:00:58;26.67;;;4.33;;
20454;SDS011;10386;54.314;10.022;2024-02-04T12:03:29;23.97;;;4.70;;
20454;SDS011;10386;54.314;10.022;2024-02-04T12:06:00;27.87;;;4.03;;
20454;SDS011;10386;54.314;10.022;2024-02-04T12:08:28;28.20;;;4.80;;
20454;SDS011;10386;54.314;10.022;2024-02-04T12:10:57;25.00;;;3.70;;
20454;SDS011;10386;54.314;10.022;2024-02-04T12:13:24;27.20;;;4.73;;
20454;SDS011;10386;54.314;10.022;2024-02-04T12:15:51;36.23;;;5.40;;
20454;SDS011;10386;54.314;10.022;2024-02-04T12:18:18;32.60;;;4.67;;
20454;SDS011;10386;54.314;10.022;2024-02-04T12:20:47;21.53;;;4.00;;
20454;SDS011;10386;54.314;10.022;2024-02-04T12:23:16;25.63;;;4.43;;
20454;SDS011;10386;54.314;10.022;2024-02-04T12:25:43;22.17;;;4.47;;
20454;SDS011;10386;54.314;10.022;2024-02-04T12:28:10;31.70;;;4.90;;
20454;SDS011;10386;54.314;10.022;2024-02-04T12:30:37;27.07;;;4.83;;
20454;SDS011;10386;54.314;10.022;2024-02-04T12:33:05;35.57;;;5.20;;
20454;SDS011;10386;54.314;10.022;2024-02-04T12:35:32;34.00;;;5.27;;
20454;SDS011;10386;54.314;10.022;2024-02-04T12:37:59;33.50;;;5.00;;
20454;SDS011;10386;54.314;10.022;2024-02-04T12:40:27;24.87;;;4.37;;
20454;SDS011;10386;54.314;10.022;2024-02-04T12:45:48;28.83;;;5.20;;
20454;SDS011;10386;54.314;10.022;2024-02-04T12:48:16;30.47;;;4.80;;
20454;SDS011;10386;54.314;10.022;2024-02-04T12:50:44;25.87;;;4.93;;
20454;SDS011;10386;54.314;10.022;2024-02-04T12:53:12;26.97;;;4.67;;
20454;SDS011;10386;54.314;10.022;2024-02-04T12:55:39;25.53;;;5.10;;
20454;SDS011;10386;54.314;10.022;2024-02-04T12:58:07;26.33;;;5.70;;
20454;SDS011;10386;54.314;10.022;2024-02-04T13:00:46;31.67;;;5.07;;
20454;SDS011;10386;54.314;10.022;2024-02-04T13:03:15;29.20;;;4.43;;
20454;SDS011;10386;54.314;10.022;2024-02-04T13:05:43;24.33;;;5.00;;
20454;SDS011;10386;54.314;10.022;2024-02-04T13:08:09;33.07;;;4.53;;
20454;SDS011;10386;54.314;10.022;2024-02-04T13:10:36;30.40;;;5.53;;
20454;SDS011;10386;54.314;10.022;2024-02-04T13:13:04;35.97;;;5.30;;
20454;SDS011;10386;54.314;10.022;2024-02-04T13:15:42;24.47;;;4.53;;
20454;SDS011;10386;54.314;10.022;2024-02-04T13:18:10;31.33;;;4.93;;
20454;SDS011;10386;54.314;10.022;2024-02-04T13:20:38;29.23;;;4.70;;
20454;SDS011;10386;54.314;10.022;2024-02-04T13:23:08;30.43;;;5.27;;
20454;SDS011;10386;54.314;10.022;2024-02-04T13:25:35;27.03;;;5.73;;
20454;SDS011;10386;54.314;10.022;2024-02-04T13:28:03;24.47;;;4.70;;
20454;SDS011;10386;54.314;10.022;2024-02-04T13:30:30;27.80;;;5.07;;
20454;SDS011;10386;54.314;10.022;2024-02-04T13:32:57;24.40;;;4.40;;
20454;SDS011;10386;54.314;10.022;2024-02-04T13:35:25;26.90;;;4.43;;
20454;SDS011;10386;54.314;10.022;2024-02-04T13:37:53;32.77;;;5.33;;
20454;SDS011;10386;54.314;10.022;2024-02-04T13:40:21;35.07;;;5.67;;
20454;SDS011;10386;54.314;10.022;2024-02-04T13:42:51;24.27;;;4.00;;
20454;SDS011;10386;54.314;10.022;2024-02-04T13:45:18;27.43;;;4.77;;
20454;SDS011;10386;54.314;10.022;2024-02-04T13:47:46;27.50;;;5.53;;
20454;SDS011;10386;54.314;10.022;2024-02-04T13:50:14;28.77;;;5.60;;
20454;SDS011;10386;54.314;10.022;2024-02-04T13:52:41;23.40;;;4.47;;
20454;SDS011;10386;54.314;10.022;2024-02-04T13:55:08;30.70;;;5.63;;
20454;SDS011;10386;54.314;10.022;2024-02-04T13:57:37;32.57;;;5.00;;
20454;SDS011;10386;54.314;10.022;2024-02-04T14:00:05;22.30;;;4.93;;
20454;SDS011;10386;54.314;10.022;2024-02-04T14:02:36;30.67;;;6.37;;
20454;SDS011;10386;54.314;10.022;2024-02-04T14:05:06;24.40;;;5.83;;
20454;SDS011;10386;54.314;10.022;2024-02-04T14:07:36;26.27;;;5.60;;
20454;SDS011;10386;54.314;10.022;2024-02-04T14:10:04;30.77;;;4.53;;
20454;SDS011;10386;54.314;10.022;2024-02-04T14:12:32;29.33;;;5.40;;
20454;SDS011;10386;54.314;10.022;2024-02-04T14:15:04;26.80;;;4.60;;
20454;SDS011;10386;54.314;10.022;2024-02-04T14:17:36;24.53;;;5.17;;
20454;SDS011;10386;54.314;10.022;2024-02-04T14:20:05;22.87;;;5.00;;
20454;SDS011;10386;54.314;10.022;2024-02-04T14:22:38;25.47;;;5.20;;
20454;SDS011;10386;54.314;10.022;2024-02-04T14:25:06;27.30;;;4.40;;
20454;SDS011;10386;54.314;10.022;2024-02-04T14:27:34;27.93;;;5.00;;
20454;SDS011;10386;54.314;10.022;2024-02-04T14:30:03;31.40;;;4.83;;
20454;SDS011;10386;54.314;10.022;2024-02-04T14:32:37;37.00;;;5.03;;
20454;SDS011;10386;54.314;10.022;2024-02-04T14:35:06;31.60;;;4.57;;
20454;SDS011;10386;54.314;10.022;2024-02-04T14:37:37;29.27;;;4.80;;
20454;SDS011;10386;54.314;10.022;2024-02-04T14:40:10;28.87;;;5.07;;
20454;SDS011;10386;54.314;10.022;2024-02-04T14:42:41;22.20;;;4.07;;
20454;SDS011;10386;54.314;10.022;2024-02-04T14:45:09;25.17;;;4.47;;
20454;SDS011;10386;54.314;10.022;2024-02-04T14:47:38;33.37;;;4.87;;
20454;SDS011;10386;54.314;10.022;2024-02-04T14:50:07;26.13;;;4.67;;
20454;SDS011;10386;54.314;10.022;2024-02-04T14:52:37;26.73;;;4.03;;
20454;SDS011;10386;54.314;10.022;2024-02-04T14:55:07;25.17;;;4.33;;
20454;SDS011;10386;54.314;10.022;2024-02-04T14:57:37;24.90;;;4.27;;
20454;SDS011;10386;54.314;10.022;2024-02-04T15:00:07;25.77;;;3.67;;
20454;SDS011;10386;54.314;10.022;2024-02-04T15:02:37;24.43;;;4.27;;
20454;SDS011;10386;54.314;10.022;2024-02-04T15:05:05;23.33;;;3.97;;
20454;SDS011;10386;54.314;10.022;2024-02-04T15:07:34;25.70;;;4.13;;